Time;durP1;ratioP1;P1;durP2;ratioP2;P2;SDS_P1;SDS_P2;PMS_P1;PMS_P2;Temp;Humidity;BMP_temperature;BMP_pressure;BME280_temperature;BME280_humidity;BME280_pressure;Samples;Min_cycle;Max_cycle;Signal;HPM_P1;HPM_P2
2021/08/03 00:01:11;;;;;;;;;;;13.20;99.90;;;;;;5114482;27;20009;-86
2021/08/03 00:03:37;;;;;;;;;;;13.20;99.90;;;;;;5129334;27;19930;-86
2021/08/03 00:06:04;;;;;;;;;;;13.10;99.90;;;;;;5129170;27;19930;-86
2021/08/03 00:08:36;;;;;;;;;;;13.10;99.90;;;;;;5111830;27;19954;-86
2021/08/03 00:11:03;;;;;;;;;;;13.10;99.90;;;;;;5129440;27;19927;-86
2021/08/03 00:13:29;;;;;;;;;;;13.10;99.90;;;;;;5116111;27;19923;-86
2021/08/03 00:16:01;;;;;;;;;;;13.10;99.90;;;;;;5124640;27;19919;-86
2021/08/03 00:18:28;;;;;;;;;;;13.10;99.90;;;;;;5146701;27;20022;-86
2021/08/03 00:20:55;;;;;;;;;;;13.10;99.90;;;;;;5147834;27;19927;-87
2021/08/03 00:23:21;;;;;;;;;;;13.10;99.90;;;;;;5128642;27;19919;-86
2021/08/03 00:25:48;;;;;;;;;;;13.10;99.90;;;;;;5114800;27;19976;-86
2021/08/03 00:28:14;;;;;;;;;;;13.10;99.90;;;;;;5145148;27;19923;-87
2021/08/03 00:30:41;;;;;;;;;;;13.10;99.90;;;;;;5168119;27;19923;-87
2021/08/03 00:33:07;;;;;;;;;;;13.10;99.90;;;;;;5149346;27;19927;-86
2021/08/03 00:35:33;;;;;;;;;;;13.20;99.90;;;;;;5127850;27;19919;-87
2021/08/03 00:38:00;;;;;;;;;;;13.20;99.90;;;;;;5146685;27;19958;-87
2021/08/03 00:40:25;;;;;;;;;;;13.20;99.90;;;;;;5147441;27;19926;-87
2021/08/03 00:42:51;;;;;;;;;;;13.30;99.90;;;;;;5124163;27;20342;-87
2021/08/03 00:45:17;;;;;;;;;;;13.30;99.90;;;;;;5147204;27;19923;-86
2021/08/03 00:47:42;;;;;;;;;;;13.40;99.90;;;;;;5147143;27;20618;-86
2021/08/03 00:50:08;;;;;;;;;;;13.40;99.90;;;;;;5127798;27;20434;-86
2021/08/03 00:52:35;;;;;;;;;;;13.40;99.90;;;;;;5160905;27;19927;-86
2021/08/03 00:55:01;;;;;;;;;;;13.40;99.90;;;;;;5149139;27;19937;-86
2021/08/03 00:57:27;;;;;;;;;;;13.40;99.90;;;;;;5128530;27;19918;-87
2021/08/03 00:59:52;;;;;;;;;;;13.40;99.90;;;;;;5146181;27;19927;-87
2021/08/03 01:02:18;;;;;;;;;;;13.30;99.90;;;;;;5128413;27;19919;-86
2021/08/03 01:04:43;;;;;;;;;;;13.30;99.90;;;;;;5128405;27;20379;-86
2021/08/03 01:07:34;;;;;;;;;;;13.30;99.90;;;;;;5129278;27;20443;-87
2021/08/03 01:10:19;;;;;;;;;;;13.20;99.90;;;;;;5157966;27;19930;-87
2021/08/03 01:12:51;;;;;;;;;;;13.20;99.90;;;;;;5128138;27;20029;-86
2021/08/03 01:15:18;;;;;;;;;;;13.10;99.90;;;;;;5165993;27;19927;-87
2021/08/03 01:17:51;;;;;;;;;;;13.00;99.90;;;;;;5149329;27;19926;-86
2021/08/03 01:20:25;;;;;;;;;;;13.00;99.90;;;;;;5163393;27;20282;-86
2021/08/03 01:23:06;;;;;;;;;;;12.90;99.90;;;;;;5146652;27;19952;-87
2021/08/03 01:25:41;;;;;;;;;;;13.00;99.90;;;;;;5128273;27;20018;-87
2021/08/03 01:28:11;;;;;;;;;;;12.90;99.90;;;;;;5128005;27;19923;-86
2021/08/03 01:30:37;;;;;;;;;;;12.80;99.90;;;;;;5127687;27;19919;-87
2021/08/03 01:33:05;;;;;;;;;;;12.80;99.90;;;;;;5124764;27;20031;-87
2021/08/03 01:35:31;;;;;;;;;;;12.70;99.90;;;;;;5146438;27;19919;-86
2021/08/03 01:38:00;;;;;;;;;;;12.80;99.90;;;;;;5135894;27;19967;-87
2021/08/03 01:40:27;;;;;;;;;;;12.80;99.90;;;;;;5148313;27;20369;-87
2021/08/03 01:42:52;;;;;;;;;;;12.70;99.90;;;;;;5167232;27;19919;-86
2021/08/03 01:45:18;;;;;;;;;;;12.70;99.90;;;;;;5148508;27;19922;-86
2021/08/03 01:47:44;;;;;;;;;;;12.80;99.90;;;;;;5125235;27;19950;-86
2021/08/03 01:50:11;;;;;;;;;;;12.70;99.90;;;;;;5145761;27;19915;-86
2021/08/03 01:52:37;;;;;;;;;;;12.60;99.90;;;;;;5141742;27;20021;-87
2021/08/03 01:55:03;;;;;;;;;;;12.60;99.90;;;;;;5148484;27;20018;-86
2021/08/03 01:57:30;;;;;;;;;;;12.60;99.90;;;;;;5148649;27;19923;-86
2021/08/03 01:59:56;;;;;;;;;;;12.50;99.90;;;;;;5148612;27;20030;-86
2021/08/03 02:02:23;;;;;;;;;;;12.50;99.90;;;;;;5118923;27;19923;-87
2021/08/03 02:04:49;;;;;;;;;;;12.50;99.90;;;;;;5110463;27;19969;-86
2021/08/03 02:07:17;;;;;;;;;;;12.50;99.90;;;;;;5146681;27;20042;-86
2021/08/03 02:09:44;;;;;;;;;;;12.50;99.90;;;;;;5148086;27;19968;-86
2021/08/03 02:12:10;;;;;;;;;;;12.50;99.90;;;;;;5166443;27;19927;-86
2021/08/03 02:14:40;;;;;;;;;;;12.50;99.90;;;;;;5135147;27;20312;-87
2021/08/03 02:17:06;;;;;;;;;;;12.50;99.90;;;;;;5145942;27;19923;-86
2021/08/03 02:19:33;;;;;;;;;;;12.40;99.90;;;;;;5111627;27;19930;-87
2021/08/03 02:21:59;;;;;;;;;;;12.40;99.90;;;;;;5149444;27;19923;-87
2021/08/03 02:24:27;;;;;;;;;;;12.40;99.90;;;;;;5123122;27;19988;-86
2021/08/03 02:26:53;;;;;;;;;;;12.40;99.90;;;;;;5149997;27;19976;-86
2021/08/03 02:29:18;;;;;;;;;;;12.40;99.90;;;;;;5133106;27;19923;-87
2021/08/03 02:31:48;;;;;;;;;;;12.40;99.90;;;;;;5150892;27;20226;-86
2021/08/03 02:34:22;;;;;;;;;;;12.40;99.90;;;;;;5170365;27;20538;-86
2021/08/03 02:36:50;;;;;;;;;;;12.40;99.90;;;;;;5169008;27;19919;-86
2021/08/03 02:39:17;;;;;;;;;;;12.40;99.90;;;;;;5170038;27;19919;-86
2021/08/03 02:41:44;;;;;;;;;;;12.40;99.90;;;;;;5151733;27;20059;-86
2021/08/03 02:44:11;;;;;;;;;;;12.40;99.90;;;;;;5150867;27;20013;-86
2021/08/03 02:46:39;;;;;;;;;;;12.40;99.90;;;;;;5151597;27;19919;-86
2021/08/03 02:49:07;;;;;;;;;;;12.40;99.90;;;;;;5151667;27;20547;-87
2021/08/03 02:51:35;;;;;;;;;;;12.40;99.90;;;;;;5150789;27;20306;-86
2021/08/03 02:54:03;;;;;;;;;;;12.30;99.90;;;;;;5150887;27;19919;-86
2021/08/03 02:56:30;;;;;;;;;;;12.40;99.90;;;;;;5169599;27;19922;-87
2021/08/03 02:58:57;;;;;;;;;;;12.40;99.90;;;;;;5134699;27;19923;-86
2021/08/03 03:01:26;;;;;;;;;;;12.30;99.90;;;;;;5150753;27;19918;-86
2021/08/03 03:03:53;;;;;;;;;;;12.40;99.90;;;;;;5168911;27;20262;-86
2021/08/03 03:06:20;;;;;;;;;;;12.30;99.90;;;;;;5151211;27;19929;-86
2021/08/03 03:08:46;;;;;;;;;;;12.30;99.90;;;;;;5151144;27;20435;-86
2021/08/03 03:11:12;;;;;;;;;;;12.40;99.90;;;;;;5151649;27;20007;-87
2021/08/03 03:13:42;;;;;;;;;;;12.40;99.90;;;;;;5153713;27;19929;-86
2021/08/03 03:16:08;;;;;;;;;;;12.50;99.90;;;;;;5169620;27;20378;-86
2021/08/03 03:18:34;;;;;;;;;;;12.50;99.90;;;;;;5169755;27;19929;-86
2021/08/03 03:21:01;;;;;;;;;;;12.50;99.90;;;;;;5151424;27;19960;-86
2021/08/03 03:23:30;;;;;;;;;;;12.50;99.90;;;;;;5150257;27;19923;-86
2021/08/03 03:25:57;;;;;;;;;;;12.50;99.90;;;;;;5150739;27;19934;-86
2021/08/03 03:28:28;;;;;;;;;;;12.50;99.90;;;;;;5150806;27;19923;-87
2021/08/03 03:30:54;;;;;;;;;;;12.50;99.90;;;;;;5150760;27;20357;-87
2021/08/03 03:33:20;;;;;;;;;;;12.50;99.90;;;;;;5168614;27;19930;-86
2021/08/03 03:35:47;;;;;;;;;;;12.50;99.90;;;;;;5150113;27;20327;-86
2021/08/03 03:38:15;;;;;;;;;;;12.60;99.90;;;;;;5150246;27;19919;-86
2021/08/03 03:40:41;;;;;;;;;;;12.60;99.90;;;;;;5150464;27;20134;-87
2021/08/03 03:43:07;;;;;;;;;;;12.60;99.90;;;;;;5150414;27;20013;-87
2021/08/03 03:45:34;;;;;;;;;;;12.60;99.90;;;;;;5149778;27;19970;-86
2021/08/03 03:48:02;;;;;;;;;;;12.60;99.90;;;;;;5150665;27;19922;-86
2021/08/03 03:50:30;;;;;;;;;;;12.60;99.90;;;;;;5168957;27;20381;-87
2021/08/03 03:53:15;;;;;;;;;;;12.60;99.90;;;;;;5151734;27;19923;-87
2021/08/03 03:55:46;;;;;;;;;;;12.70;99.90;;;;;;5128924;27;19950;-86
2021/08/03 03:58:12;;;;;;;;;;;12.70;99.90;;;;;;5129208;27;20417;-86
2021/08/03 04:00:38;;;;;;;;;;;12.70;99.90;;;;;;5129459;27;19972;-86
2021/08/03 04:03:05;;;;;;;;;;;12.80;99.90;;;;;;5148131;27;19941;-86
2021/08/03 04:05:31;;;;;;;;;;;12.80;99.90;;;;;;5127927;27;19926;-86
2021/08/03 04:07:57;;;;;;;;;;;12.80;99.90;;;;;;5136723;27;19948;-86
2021/08/03 04:10:33;;;;;;;;;;;12.80;99.90;;;;;;5149758;27;19922;-86
2021/08/03 04:12:59;;;;;;;;;;;12.90;99.90;;;;;;5137789;27;19923;-86
2021/08/03 04:15:26;;;;;;;;;;;12.90;99.90;;;;;;5147371;27;19950;-86
2021/08/03 04:17:51;;;;;;;;;;;12.90;99.90;;;;;;5128930;27;20172;-86
2021/08/03 04:20:17;;;;;;;;;;;13.00;99.90;;;;;;5111711;27;19951;-86
2021/08/03 04:22:43;;;;;;;;;;;13.00;99.90;;;;;;5123310;27;19930;-87
2021/08/03 04:25:09;;;;;;;;;;;13.20;99.90;;;;;;5146573;27;20017;-86
2021/08/03 04:27:35;;;;;;;;;;;13.20;99.90;;;;;;5168352;27;19946;-86
2021/08/03 04:30:01;;;;;;;;;;;13.30;99.90;;;;;;5149733;27;19966;-87
2021/08/03 04:32:36;;;;;;;;;;;13.30;99.90;;;;;;5168457;27;19923;-87
2021/08/03 04:35:03;;;;;;;;;;;13.40;99.90;;;;;;5149410;27;19923;-86
2021/08/03 04:37:35;;;;;;;;;;;13.50;99.90;;;;;;5149000;27;19930;-86
2021/08/03 04:40:02;;;;;;;;;;;13.50;99.90;;;;;;5149454;27;20122;-86
2021/08/03 04:42:27;;;;;;;;;;;13.50;99.90;;;;;;5119793;27;20451;-87
2021/08/03 04:44:53;;;;;;;;;;;13.60;99.90;;;;;;5146416;27;19919;-86
2021/08/03 04:47:18;;;;;;;;;;;13.60;99.90;;;;;;5127776;27;20230;-86
2021/08/03 04:49:44;;;;;;;;;;;13.60;99.90;;;;;;5114140;27;20441;-88
2021/08/03 04:52:10;;;;;;;;;;;13.70;99.90;;;;;;5128017;27;20378;-86
2021/08/03 04:54:35;;;;;;;;;;;13.70;99.90;;;;;;5128679;27;20290;-86
2021/08/03 04:57:01;;;;;;;;;;;13.70;99.90;;;;;;5124423;27;19923;-86
2021/08/03 04:59:27;;;;;;;;;;;13.80;99.90;;;;;;5128162;27;19923;-86
2021/08/03 05:01:53;;;;;;;;;;;13.80;99.90;;;;;;5128306;27;19919;-86
2021/08/03 05:04:19;;;;;;;;;;;13.90;99.90;;;;;;5128660;27;19977;-86
2021/08/03 05:06:45;;;;;;;;;;;13.90;99.90;;;;;;5127980;27;19946;-86
2021/08/03 05:09:10;;;;;;;;;;;13.90;99.90;;;;;;5147075;27;19919;-86
2021/08/03 05:11:36;;;;;;;;;;;14.00;99.90;;;;;;5127879;27;19962;-86
2021/08/03 05:14:04;;;;;;;;;;;14.00;99.90;;;;;;5137694;27;20013;-86
2021/08/03 05:16:31;;;;;;;;;;;14.00;99.90;;;;;;5148837;27;19933;-86
2021/08/03 05:18:56;;;;;;;;;;;14.10;99.90;;;;;;5148808;27;19922;-86
2021/08/03 05:21:22;;;;;;;;;;;14.10;99.90;;;;;;5149192;27;19930;-86
2021/08/03 05:23:48;;;;;;;;;;;14.10;99.90;;;;;;5125160;27;19972;-87
2021/08/03 05:26:13;;;;;;;;;;;14.10;99.90;;;;;;5146403;27;19923;-86
2021/08/03 05:28:40;;;;;;;;;;;14.10;99.90;;;;;;5127600;27;19927;-86
2021/08/03 05:31:05;;;;;;;;;;;14.00;99.90;;;;;;5146319;27;19971;-86
2021/08/03 05:33:32;;;;;;;;;;;14.00;99.90;;;;;;5128255;27;19975;-85
2021/08/03 05:35:58;;;;;;;;;;;14.00;99.90;;;;;;5115833;27;19940;-86
2021/08/03 05:38:24;;;;;;;;;;;14.10;99.90;;;;;;5127185;27;19923;-86
2021/08/03 05:40:50;;;;;;;;;;;14.10;99.90;;;;;;5127530;27;19926;-87
2021/08/03 05:43:15;;;;;;;;;;;14.10;99.90;;;;;;5127526;27;19919;-87
2021/08/03 05:45:41;;;;;;;;;;;14.10;99.90;;;;;;5146058;27;20358;-87
2021/08/03 05:48:07;;;;;;;;;;;14.10;99.90;;;;;;5146155;27;20029;-87
2021/08/03 05:50:32;;;;;;;;;;;14.10;99.90;;;;;;5127701;27;20042;-87
2021/08/03 05:52:58;;;;;;;;;;;14.20;99.90;;;;;;5145033;27;19927;-86
2021/08/03 05:55:24;;;;;;;;;;;14.20;99.90;;;;;;5112129;27;19977;-86
2021/08/03 05:57:49;;;;;;;;;;;14.20;99.90;;;;;;5131992;27;20342;-86
2021/08/03 06:00:15;;;;;;;;;;;14.20;99.90;;;;;;5122981;27;19923;-86
2021/08/03 06:02:41;;;;;;;;;;;14.20;99.90;;;;;;5145855;27;20248;-87
2021/08/03 06:05:07;;;;;;;;;;;14.20;99.90;;;;;;5152533;27;20387;-86
2021/08/03 06:07:36;;;;;;;;;;;14.20;99.90;;;;;;5152240;27;19923;-86
2021/08/03 06:10:02;;;;;;;;;;;14.30;99.90;;;;;;5170723;27;19923;-87
2021/08/03 06:12:28;;;;;;;;;;;14.30;99.90;;;;;;5169652;27;20456;-87
2021/08/03 06:14:55;;;;;;;;;;;14.40;99.90;;;;;;5136304;27;19961;-86
2021/08/03 06:17:29;;;;;;;;;;;14.40;99.90;;;;;;5131371;27;19923;-87
2021/08/03 06:19:54;;;;;;;;;;;14.50;99.90;;;;;;5149446;27;19923;-87
2021/08/03 06:22:20;;;;;;;;;;;14.50;99.90;;;;;;5150254;27;19989;-87
2021/08/03 06:24:49;;;;;;;;;;;14.60;99.90;;;;;;5131397;27;20454;-87
2021/08/03 06:27:16;;;;;;;;;;;14.70;99.90;;;;;;5130857;27;20123;-86
2021/08/03 06:29:43;;;;;;;;;;;14.70;99.90;;;;;;5149382;27;19934;-87
2021/08/03 06:32:09;;;;;;;;;;;14.70;99.90;;;;;;5131016;27;19922;-86
2021/08/03 06:34:36;;;;;;;;;;;14.70;99.90;;;;;;5131233;27;20271;-87
2021/08/03 06:37:02;;;;;;;;;;;14.80;99.90;;;;;;5131175;27;19919;-87
2021/08/03 06:39:28;;;;;;;;;;;14.80;99.90;;;;;;5130412;27;19927;-86
2021/08/03 06:41:59;;;;;;;;;;;14.80;99.90;;;;;;5130656;27;20360;-87
2021/08/03 06:44:28;;;;;;;;;;;14.80;99.90;;;;;;5131050;27;20425;-87
2021/08/03 06:46:55;;;;;;;;;;;14.90;99.90;;;;;;5149545;27;20014;-87
2021/08/03 06:49:22;;;;;;;;;;;14.90;99.90;;;;;;5149272;27;20203;-87
2021/08/03 06:51:51;;;;;;;;;;;14.90;99.90;;;;;;5136993;27;19922;-87
2021/08/03 06:54:19;;;;;;;;;;;15.00;99.90;;;;;;5151480;27;19973;-87
2021/08/03 06:56:50;;;;;;;;;;;15.00;99.90;;;;;;5151044;27;20014;-87
2021/08/03 06:59:22;;;;;;;;;;;15.10;99.90;;;;;;5150827;27;19923;-87
2021/08/03 07:02:05;;;;;;;;;;;15.20;99.90;;;;;;5113187;27;20254;-87
2021/08/03 07:04:37;;;;;;;;;;;15.20;99.90;;;;;;5130199;27;20063;-86
2021/08/03 07:07:03;;;;;;;;;;;15.30;99.90;;;;;;5129533;27;19923;-87
2021/08/03 07:09:29;;;;;;;;;;;15.30;99.90;;;;;;5130399;27;20472;-86
2021/08/03 07:11:55;;;;;;;;;;;15.40;99.90;;;;;;5116603;27;20659;-87
2021/08/03 07:14:24;;;;;;;;;;;15.40;99.90;;;;;;5141787;27;19919;-87
2021/08/03 07:16:53;;;;;;;;;;;15.40;99.90;;;;;;5169990;27;19923;-87
2021/08/03 07:19:23;;;;;;;;;;;15.50;99.90;;;;;;5169608;27;20285;-87
2021/08/03 07:21:49;;;;;;;;;;;15.50;99.90;;;;;;5140583;27;20009;-87
2021/08/03 07:24:16;;;;;;;;;;;15.60;99.90;;;;;;5158256;27;19919;-86
2021/08/03 07:26:41;;;;;;;;;;;15.60;99.90;;;;;;5150108;27;19950;-87
2021/08/03 07:29:07;;;;;;;;;;;15.60;99.90;;;;;;5150251;27;20014;-87
2021/08/03 07:31:33;;;;;;;;;;;15.60;99.90;;;;;;5150448;27;19927;-87
2021/08/03 07:33:59;;;;;;;;;;;15.60;99.90;;;;;;5150380;27;19930;-87
2021/08/03 07:36:25;;;;;;;;;;;15.60;99.90;;;;;;5150923;27;19923;-87
2021/08/03 07:38:58;;;;;;;;;;;15.70;99.90;;;;;;5150446;27;20049;-89
2021/08/03 07:41:28;;;;;;;;;;;15.70;99.90;;;;;;5114158;27;19923;-87
2021/08/03 07:43:54;;;;;;;;;;;15.80;99.90;;;;;;5128097;27;19923;-87
2021/08/03 07:46:20;;;;;;;;;;;15.80;99.90;;;;;;5132483;27;19929;-87
2021/08/03 07:48:50;;;;;;;;;;;15.80;99.90;;;;;;5145862;27;19918;-88
2021/08/03 07:51:20;;;;;;;;;;;15.80;99.90;;;;;;5118379;27;19958;-87
2021/08/03 07:53:46;;;;;;;;;;;15.80;99.90;;;;;;5162277;27;19933;-88
2021/08/03 07:56:12;;;;;;;;;;;15.90;99.90;;;;;;5136285;27;20369;-87
2021/08/03 07:58:38;;;;;;;;;;;15.90;99.90;;;;;;5118411;27;20413;-87
2021/08/03 08:01:04;;;;;;;;;;;15.80;99.90;;;;;;5136280;27;19950;-86
2021/08/03 08:03:33;;;;;;;;;;;15.80;99.90;;;;;;5136081;27;19969;-87
2021/08/03 08:05:59;;;;;;;;;;;15.80;99.90;;;;;;5137769;27;19952;-86
2021/08/03 08:08:25;;;;;;;;;;;15.80;99.90;;;;;;5155379;27;20010;-87
2021/08/03 08:10:50;;;;;;;;;;;15.80;99.90;;;;;;5155000;27;19934;-87
2021/08/03 08:13:16;;;;;;;;;;;15.80;99.90;;;;;;5118821;27;19923;-86
2021/08/03 08:15:42;;;;;;;;;;;15.90;99.90;;;;;;5153425;27;19923;-87
2021/08/03 08:18:08;;;;;;;;;;;15.90;99.90;;;;;;5141231;27;19945;-87
2021/08/03 08:20:35;;;;;;;;;;;15.90;99.90;;;;;;5115659;27;19927;-87
2021/08/03 08:23:00;;;;;;;;;;;15.90;99.90;;;;;;5147107;27;19926;-87
2021/08/03 08:25:27;;;;;;;;;;;15.90;99.90;;;;;;5129031;27;19919;-87
2021/08/03 08:27:52;;;;;;;;;;;15.90;99.90;;;;;;5147397;27;19926;-87
2021/08/03 08:30:18;;;;;;;;;;;15.90;99.90;;;;;;5128043;27;20114;-87
2021/08/03 08:32:44;;;;;;;;;;;16.00;99.90;;;;;;5146727;27;19934;-87
2021/08/03 08:35:11;;;;;;;;;;;16.00;99.90;;;;;;5127580;27;19923;-87
2021/08/03 08:37:36;;;;;;;;;;;16.10;99.90;;;;;;5128691;27;20427;-87
2021/08/03 08:40:04;;;;;;;;;;;16.10;99.90;;;;;;5128167;27;21313;-87
2021/08/03 08:42:31;;;;;;;;;;;16.20;99.90;;;;;;5128140;27;19922;-87
2021/08/03 08:44:57;;;;;;;;;;;16.20;99.90;;;;;;5127860;27;20298;-87
2021/08/03 08:47:24;;;;;;;;;;;16.20;99.90;;;;;;5128606;27;19919;-87
2021/08/03 08:49:49;;;;;;;;;;;16.30;99.90;;;;;;5128699;27;20382;-87
2021/08/03 08:52:15;;;;;;;;;;;16.40;99.90;;;;;;5158183;27;19975;-87
2021/08/03 08:54:41;;;;;;;;;;;16.40;99.90;;;;;;5167431;27;20397;-87
2021/08/03 08:57:07;;;;;;;;;;;16.50;99.90;;;;;;5149132;27;20043;-86
2021/08/03 08:59:33;;;;;;;;;;;16.50;99.90;;;;;;5167678;27;20395;-87
2021/08/03 09:01:58;;;;;;;;;;;16.50;99.90;;;;;;5168014;27;20385;-86
2021/08/03 09:04:24;;;;;;;;;;;16.40;99.90;;;;;;5167488;27;20060;-87
2021/08/03 09:07:00;;;;;;;;;;;16.40;99.90;;;;;;5149018;27;19927;-87
2021/08/03 09:09:25;;;;;;;;;;;16.40;99.90;;;;;;5149000;27;19919;-87
2021/08/03 09:11:51;;;;;;;;;;;16.40;99.90;;;;;;5148711;27;20285;-87
2021/08/03 09:14:31;;;;;;;;;;;16.40;99.90;;;;;;5104175;27;20111;-87
2021/08/03 09:16:59;;;;;;;;;;;16.40;99.90;;;;;;5146435;27;19965;-87
2021/08/03 09:19:28;;;;;;;;;;;16.50;99.90;;;;;;5131332;27;19919;-87
2021/08/03 09:22:09;;;;;;;;;;;16.60;99.90;;;;;;5148837;27;19974;-86
2021/08/03 09:24:35;;;;;;;;;;;16.70;99.90;;;;;;5167330;27;20381;-87
2021/08/03 09:27:01;;;;;;;;;;;16.80;99.90;;;;;;5114205;27;19923;-87
2021/08/03 09:29:26;;;;;;;;;;;16.80;99.90;;;;;;5146715;27;19923;-86
2021/08/03 09:31:54;;;;;;;;;;;16.70;99.90;;;;;;5132206;27;19950;-87
2021/08/03 09:34:20;;;;;;;;;;;16.70;99.90;;;;;;5132094;27;19927;-87
2021/08/03 09:36:46;;;;;;;;;;;16.70;99.90;;;;;;5131431;27;19923;-87
2021/08/03 09:39:30;;;;;;;;;;;16.70;99.90;;;;;;5131954;27;19960;-86
2021/08/03 09:41:56;;;;;;;;;;;16.70;99.90;;;;;;5150832;27;20015;-86
2021/08/03 09:44:21;;;;;;;;;;;16.70;99.90;;;;;;5132166;27;20390;-87
2021/08/03 09:46:56;;;;;;;;;;;16.70;99.90;;;;;;5131101;27;20348;-87
2021/08/03 09:49:31;;;;;;;;;;;16.80;99.90;;;;;;5131640;27;19967;-87
2021/08/03 09:52:05;;;;;;;;;;;16.90;99.90;;;;;;5158919;27;19930;-87
2021/08/03 09:54:31;;;;;;;;;;;17.00;99.90;;;;;;5171735;27;19929;-87
2021/08/03 09:56:56;;;;;;;;;;;17.10;99.90;;;;;;5170791;27;19914;-87
2021/08/03 09:59:31;;;;;;;;;;;17.20;99.90;;;;;;5171225;27;20047;-87
2021/08/03 10:01:57;;;;;;;;;;;17.30;99.90;;;;;;5152043;27;19922;-87
2021/08/03 10:04:24;;;;;;;;;;;17.40;99.90;;;;;;5152464;27;20006;-87
2021/08/03 10:06:51;;;;;;;;;;;17.40;99.90;;;;;;5152083;27;19922;-86
2021/08/03 10:09:18;;;;;;;;;;;17.50;99.90;;;;;;5152425;27;19923;-87
2021/08/03 10:11:44;;;;;;;;;;;17.50;99.90;;;;;;5152134;27;19922;-86
2021/08/03 10:14:10;;;;;;;;;;;17.60;99.90;;;;;;5141993;27;19937;-86
2021/08/03 10:16:35;;;;;;;;;;;17.60;99.90;;;;;;5130635;27;20060;-87
2021/08/03 10:19:01;;;;;;;;;;;17.70;99.90;;;;;;5127492;27;19919;-87
2021/08/03 10:21:33;;;;;;;;;;;17.80;99.90;;;;;;5114345;27;19929;-87
2021/08/03 10:24:09;;;;;;;;;;;17.90;99.90;;;;;;5150228;27;19925;-86
2021/08/03 10:26:34;;;;;;;;;;;17.90;99.90;;;;;;5131325;27;19923;-86
2021/08/03 10:29:19;;;;;;;;;;;18.00;99.90;;;;;;5148717;27;19923;-86
2021/08/03 10:31:44;;;;;;;;;;;18.00;99.90;;;;;;5149643;27;19950;-86
2021/08/03 10:34:10;;;;;;;;;;;18.10;99.90;;;;;;5131037;27;19920;-87
2021/08/03 10:36:36;;;;;;;;;;;18.10;99.90;;;;;;5131179;27;19927;-87
2021/08/03 10:39:06;;;;;;;;;;;18.00;99.90;;;;;;5149061;27;19926;-87
2021/08/03 10:41:52;;;;;;;;;;;18.00;99.90;;;;;;5130865;27;19919;-87
2021/08/03 10:44:50;;;;;;;;;;;18.00;99.90;;;;;;5130767;27;19923;-86
2021/08/03 10:47:34;;;;;;;;;;;17.90;99.90;;;;;;5089837;27;20259;-86
2021/08/03 10:50:06;;;;;;;;;;;17.90;99.90;;;;;;5149262;27;20477;-87
2021/08/03 10:52:52;;;;;;;;;;;18.00;99.90;;;;;;5162608;27;19927;-87
2021/08/03 10:55:27;;;;;;;;;;;17.90;99.90;;;;;;5170236;27;19923;-87
2021/08/03 10:58:08;;;;;;;;;;;18.00;99.90;;;;;;5151229;27;19926;-86
2021/08/03 11:00:44;;;;;;;;;;;18.00;99.90;;;;;;5151446;27;20176;-87
2021/08/03 11:03:28;;;;;;;;;;;18.00;99.90;;;;;;5150783;27;19919;-86
2021/08/03 11:05:54;;;;;;;;;;;18.10;99.90;;;;;;5151134;27;19930;-87
2021/08/03 11:08:29;;;;;;;;;;;18.20;99.90;;;;;;5150662;27;19926;-87
2021/08/03 11:10:56;;;;;;;;;;;18.30;99.90;;;;;;5150826;27;20297;-87
2021/08/03 11:14:06;;;;;;;;;;;18.40;99.90;;;;;;5148206;27;20017;-87
2021/08/03 11:16:32;;;;;;;;;;;18.50;99.90;;;;;;5039684;28;19924;-86
2021/08/03 11:18:58;;;;;;;;;;;18.70;99.90;;;;;;5046630;28;19950;-87
2021/08/03 11:21:25;;;;;;;;;;;18.90;99.90;;;;;;5089117;27;19923;-86
2021/08/03 11:23:57;;;;;;;;;;;18.90;99.90;;;;;;5130587;27;19925;-87
2021/08/03 11:26:23;;;;;;;;;;;18.90;99.90;;;;;;5129672;27;20021;-87
2021/08/03 11:28:59;;;;;;;;;;;18.90;99.90;;;;;;5148741;27;20378;-87
2021/08/03 11:31:41;;;;;;;;;;;18.90;99.90;;;;;;5148271;27;19927;-87
2021/08/03 11:34:07;;;;;;;;;;;18.80;99.90;;;;;;5129682;27;19925;-87
2021/08/03 11:36:33;;;;;;;;;;;18.70;99.90;;;;;;5122506;27;19919;-87
2021/08/03 11:39:00;;;;;;;;;;;18.60;99.90;;;;;;5148538;27;19927;-86
2021/08/03 11:41:26;;;;;;;;;;;18.60;99.90;;;;;;5129101;27;19919;-87
2021/08/03 11:43:52;;;;;;;;;;;18.60;99.90;;;;;;5129724;27;20339;-86
2021/08/03 11:46:25;;;;;;;;;;;18.60;99.90;;;;;;5120213;27;20400;-87
2021/08/03 11:49:06;;;;;;;;;;;18.50;99.90;;;;;;5145137;27;20013;-87
2021/08/03 11:51:36;;;;;;;;;;;18.50;99.90;;;;;;5144549;27;20003;-87
2021/08/03 11:54:12;;;;;;;;;;;18.50;99.90;;;;;;5125631;27;19923;-87
2021/08/03 11:56:38;;;;;;;;;;;18.50;99.90;;;;;;5126200;27;19923;-87
2021/08/03 11:59:03;;;;;;;;;;;18.50;99.90;;;;;;5125935;27;20511;-87
2021/08/03 12:01:48;;;;;;;;;;;18.50;99.90;;;;;;5108563;27;19970;-86
2021/08/03 12:04:14;;;;;;;;;;;18.60;99.90;;;;;;5136023;27;19919;-86
2021/08/03 12:06:40;;;;;;;;;;;18.80;99.90;;;;;;5146351;27;20476;-86
2021/08/03 12:09:06;;;;;;;;;;;18.90;99.90;;;;;;5111406;27;19924;-87
2021/08/03 12:11:32;;;;;;;;;;;18.90;99.90;;;;;;5108856;27;19923;-87
2021/08/03 12:14:11;;;;;;;;;;;19.00;99.90;;;;;;5135289;27;19946;-87
2021/08/03 12:16:37;;;;;;;;;;;19.10;99.90;;;;;;5147764;27;19971;-87
2021/08/03 12:19:02;;;;;;;;;;;19.20;99.90;;;;;;5111256;27;19946;-86
2021/08/03 12:21:35;;;;;;;;;;;19.20;99.90;;;;;;5124933;27;20316;-87
2021/08/03 12:24:08;;;;;;;;;;;19.30;99.90;;;;;;5126142;27;19919;-87
2021/08/03 12:26:34;;;;;;;;;;;19.40;99.90;;;;;;5125438;27;19923;-87
2021/08/03 12:28:59;;;;;;;;;;;19.50;99.90;;;;;;5125645;27;20578;-87
2021/08/03 12:31:32;;;;;;;;;;;19.50;99.90;;;;;;5124578;27;19927;-87
2021/08/03 12:34:07;;;;;;;;;;;19.50;99.90;;;;;;5126387;27;19950;-87
2021/08/03 12:36:47;;;;;;;;;;;19.50;99.90;;;;;;5126750;27;19942;-86
2021/08/03 12:39:18;;;;;;;;;;;19.60;99.90;;;;;;5125260;27;19951;-86
2021/08/03 12:41:59;;;;;;;;;;;19.60;99.90;;;;;;5124676;27;19927;-86
2021/08/03 12:44:26;;;;;;;;;;;19.50;99.90;;;;;;5124907;27;19924;-86
2021/08/03 12:46:52;;;;;;;;;;;19.60;99.90;;;;;;5125406;27;20390;-87
2021/08/03 12:49:29;;;;;;;;;;;19.70;99.90;;;;;;5123521;27;20170;-87
2021/08/03 12:52:04;;;;;;;;;;;19.80;99.90;;;;;;5128204;27;20019;-87
2021/08/03 12:54:30;;;;;;;;;;;19.90;99.90;;;;;;5128399;27;19930;-87
2021/08/03 12:56:57;;;;;;;;;;;20.10;99.90;;;;;;5147070;27;19919;-87
2021/08/03 12:59:32;;;;;;;;;;;20.10;99.90;;;;;;5127934;27;19925;-87
2021/08/03 13:01:58;;;;;;;;;;;20.20;99.90;;;;;;5127697;27;19919;-87
2021/08/03 13:04:23;;;;;;;;;;;20.30;99.90;;;;;;5127257;27;19952;-87
2021/08/03 13:06:53;;;;;;;;;;;20.40;99.90;;;;;;5128031;27;20541;-86
2021/08/03 13:09:19;;;;;;;;;;;20.40;99.90;;;;;;5128182;27;19923;-87
2021/08/03 13:11:44;;;;;;;;;;;20.50;99.90;;;;;;5148100;27;19927;-87
2021/08/03 13:14:10;;;;;;;;;;;20.40;99.90;;;;;;5110350;27;19926;-86
2021/08/03 13:16:35;;;;;;;;;;;20.40;99.90;;;;;;5128202;27;19972;-87
2021/08/03 13:19:01;;;;;;;;;;;20.40;99.90;;;;;;5128023;27;19962;-87
2021/08/03 13:21:27;;;;;;;;;;;20.40;99.90;;;;;;5110961;27;20184;-87
2021/08/03 13:23:52;;;;;;;;;;;20.40;99.90;;;;;;5127439;27;19929;-86
2021/08/03 13:26:18;;;;;;;;;;;20.20;99.90;;;;;;5127848;27;19925;-86
2021/08/03 13:28:44;;;;;;;;;;;20.10;99.90;;;;;;5146808;27;19930;-87
2021/08/03 13:31:09;;;;;;;;;;;20.00;99.90;;;;;;5127843;27;20099;-87
2021/08/03 13:33:35;;;;;;;;;;;20.00;99.90;;;;;;5146178;27;19985;-87
2021/08/03 13:36:01;;;;;;;;;;;19.90;99.90;;;;;;5127746;27;19922;-86
2021/08/03 13:38:27;;;;;;;;;;;19.80;99.90;;;;;;5127860;27;19926;-87
2021/08/03 13:40:53;;;;;;;;;;;19.80;99.90;;;;;;5128096;27;19923;-87
2021/08/03 13:43:19;;;;;;;;;;;19.70;99.90;;;;;;5126206;27;19929;-86
2021/08/03 13:45:44;;;;;;;;;;;19.60;99.90;;;;;;5128204;27;19923;-87
2021/08/03 13:48:10;;;;;;;;;;;19.60;99.90;;;;;;5117033;27;20292;-86
2021/08/03 13:50:36;;;;;;;;;;;19.60;99.90;;;;;;5140936;27;19931;-86
2021/08/03 13:53:02;;;;;;;;;;;19.60;99.90;;;;;;5148801;27;20390;-86
2021/08/03 13:55:28;;;;;;;;;;;19.60;99.90;;;;;;5127093;27;19959;-87
2021/08/03 13:57:55;;;;;;;;;;;19.60;99.90;;;;;;5127909;27;20374;-86
2021/08/03 14:00:20;;;;;;;;;;;19.60;99.90;;;;;;5127789;27;20324;-87
2021/08/03 14:02:46;;;;;;;;;;;19.60;99.90;;;;;;5127632;27;19946;-87
2021/08/03 14:05:11;;;;;;;;;;;19.60;99.90;;;;;;5120965;27;19925;-86
2021/08/03 14:07:37;;;;;;;;;;;19.60;99.90;;;;;;5146148;27;19935;-87
2021/08/03 14:10:04;;;;;;;;;;;19.60;99.90;;;;;;5127466;27;20290;-87
2021/08/03 14:12:29;;;;;;;;;;;19.60;99.90;;;;;;5145837;27;19919;-87
2021/08/03 14:14:55;;;;;;;;;;;19.60;99.90;;;;;;5143563;27;19972;-87
2021/08/03 14:17:21;;;;;;;;;;;19.60;99.90;;;;;;5151353;27;19995;-86
2021/08/03 14:19:46;;;;;;;;;;;19.60;99.90;;;;;;5145951;27;19926;-87
2021/08/03 14:22:12;;;;;;;;;;;19.60;99.90;;;;;;5130969;27;19919;-86